createdAt,value
2022-08-23T00:00:52.401Z,23.40
2022-08-23T00:05:08.102Z,23.40
2022-08-23T00:09:13.121Z,23.40
2022-08-23T00:13:17.387Z,23.40
2022-08-23T00:17:33.596Z,23.40
2022-08-23T00:21:38.659Z,23.40
2022-08-23T00:25:41.603Z,23.40
2022-08-23T00:29:47.194Z,23.40
2022-08-23T00:33:50.038Z,23.40
2022-08-23T00:38:14.665Z,23.40
2022-08-23T00:42:43.870Z,23.40
2022-08-23T00:47:06.442Z,23.40
2022-08-23T00:51:13.050Z,23.30
2022-08-23T00:55:16.979Z,23.30
2022-08-23T00:59:20.203Z,23.30
2022-08-23T01:03:26.835Z,23.30
2022-08-23T01:07:35.081Z,23.30
2022-08-23T01:11:39.573Z,23.30
2022-08-23T01:15:44.475Z,23.30
2022-08-23T01:19:51.780Z,23.30
2022-08-23T01:23:57.097Z,23.30
2022-08-23T01:28:00.446Z,23.30
2022-08-23T01:32:03.596Z,23.30
2022-08-23T01:36:10.236Z,23.30
2022-08-23T01:40:15.288Z,23.30
2022-08-23T01:44:18.329Z,23.20
2022-08-23T01:48:22.063Z,23.20
2022-08-23T01:52:24.875Z,23.20
2022-08-23T01:56:38.347Z,23.20
2022-08-23T02:00:44.409Z,23.20
2022-08-23T02:04:47.210Z,23.20
2022-08-23T02:09:05.662Z,23.10
2022-08-23T02:13:21.807Z,23.10
2022-08-23T02:17:24.620Z,23.10
2022-08-23T02:21:27.436Z,23.10
2022-08-23T02:25:30.389Z,23.00
2022-08-23T02:29:39.141Z,23.00
2022-08-23T02:38:04.123Z,23.00
2022-08-23T02:42:07.391Z,23.00
2022-08-23T02:46:11.716Z,23.00
2022-08-23T02:50:14.629Z,23.00
2022-08-23T02:54:17.473Z,22.90
2022-08-23T02:58:20.377Z,22.90
2022-08-23T03:02:24.696Z,22.90
2022-08-23T03:06:27.814Z,22.80
2022-08-23T03:10:31.278Z,22.80
2022-08-23T03:14:35.335Z,22.70
2022-08-23T03:18:42.124Z,22.70
2022-08-23T03:22:48.513Z,22.60
2022-08-23T03:26:57.722Z,22.50
2022-08-23T03:31:00.924Z,22.50
2022-08-23T03:35:11.033Z,22.40
2022-08-23T03:39:18.229Z,22.30
2022-08-23T03:43:21.182Z,22.20
2022-08-23T03:47:23.996Z,22.20
2022-08-23T03:51:29.147Z,22.10
2022-08-23T03:55:31.945Z,22.10
2022-08-23T03:59:37.482Z,22.00
2022-08-23T04:03:40.278Z,22.00
2022-08-23T04:07:44.500Z,21.90
2022-08-23T04:11:47.368Z,21.90
2022-08-23T04:15:50.376Z,21.80
2022-08-23T04:19:53.147Z,21.80
2022-08-23T04:23:57.315Z,21.80
2022-08-23T04:28:00.657Z,21.70
2022-08-23T04:32:05.236Z,21.70
2022-08-23T04:36:10.468Z,21.70
2022-08-23T04:40:32.430Z,21.60
2022-08-23T04:44:35.971Z,21.60
2022-08-23T04:48:38.800Z,21.60
2022-08-23T04:52:41.607Z,21.50
2022-08-23T04:56:45.779Z,21.50
2022-08-23T05:00:54.732Z,21.50
2022-08-23T05:04:57.602Z,21.50
2022-08-23T05:09:01.673Z,21.50
2022-08-23T05:13:05.823Z,21.50
2022-08-23T05:17:08.631Z,21.50
2022-08-23T05:21:15.056Z,21.40
2022-08-23T05:25:18.026Z,21.40
2022-08-23T05:29:22.480Z,21.50
2022-08-23T05:33:25.337Z,21.50
2022-08-23T05:37:28.201Z,21.50
2022-08-23T05:41:37.763Z,21.50
2022-08-23T05:45:42.690Z,21.50
2022-08-23T05:49:46.795Z,21.50
2022-08-23T05:53:50.494Z,21.50
2022-08-23T05:57:53.313Z,21.40
2022-08-23T06:01:57.558Z,21.40
2022-08-23T06:06:00.759Z,21.40
2022-08-23T06:10:03.855Z,21.40
2022-08-23T06:14:09.081Z,21.40
2022-08-23T06:18:14.456Z,21.40
2022-08-23T06:22:17.598Z,21.50
2022-08-23T06:26:22.431Z,21.50
2022-08-23T06:30:25.248Z,21.50
2022-08-23T06:34:32.334Z,21.50
2022-08-23T06:38:35.537Z,21.60
2022-08-23T06:42:39.051Z,21.60
2022-08-23T06:46:42.357Z,21.70
2022-08-23T06:50:47.859Z,21.80
2022-08-23T06:54:51.418Z,21.80
2022-08-23T06:58:54.655Z,21.90
2022-08-23T07:02:57.602Z,21.90
2022-08-23T07:07:02.638Z,22.00
2022-08-23T07:11:05.723Z,22.20
2022-08-23T07:15:09.045Z,22.30
2022-08-23T07:19:12.343Z,22.50
2022-08-23T07:23:17.715Z,22.70
2022-08-23T07:27:20.559Z,22.90
2022-08-23T07:31:27.375Z,23.20
2022-08-23T07:35:30.355Z,23.50
2022-08-23T07:39:34.511Z,23.70
2022-08-23T07:43:37.434Z,23.90
2022-08-23T07:47:45.472Z,24.20
2022-08-23T07:51:52.765Z,24.50
2022-08-23T07:55:57.116Z,24.70
2022-08-23T08:00:02.674Z,25.00
2022-08-23T08:04:06.715Z,25.20
2022-08-23T08:08:09.622Z,25.50
2022-08-23T08:12:13.877Z,25.60
2022-08-23T08:16:22.011Z,26.00
2022-08-23T08:20:26.681Z,26.00
2022-08-23T08:24:29.458Z,26.20
2022-08-23T08:28:33.990Z,26.50
2022-08-23T08:32:37.207Z,26.70
2022-08-23T08:36:41.355Z,26.90
2022-08-23T08:40:44.727Z,27.10
2022-08-23T08:44:52.312Z,27.40
2022-08-23T08:48:58.498Z,27.50
2022-08-23T08:57:07.820Z,28.10
2022-08-23T09:01:11.986Z,28.30
2022-08-23T09:05:15.717Z,28.60
2022-08-23T09:09:24.033Z,28.90
2022-08-23T09:13:55.622Z,29.10
2022-08-23T09:18:04.184Z,29.30
2022-08-23T09:22:13.394Z,29.60
2022-08-23T09:26:22.122Z,29.70
2022-08-23T09:30:45.054Z,29.90
2022-08-23T09:34:50.126Z,30.00
2022-08-23T09:38:54.876Z,30.10
2022-08-23T09:43:09.605Z,30.20
2022-08-23T09:47:14.784Z,30.30
2022-08-23T09:51:23.396Z,30.60
2022-08-23T09:55:29.807Z,30.70
2022-08-23T09:59:35.930Z,31.00
2022-08-23T10:03:39.038Z,31.20
2022-08-23T10:07:45.737Z,31.40
2022-08-23T10:11:48.618Z,31.60
2022-08-23T10:15:55.448Z,31.70
2022-08-23T10:20:04.209Z,31.90
2022-08-23T10:24:14.608Z,32.00
2022-08-23T10:28:41.321Z,32.20
2022-08-23T10:32:47.769Z,32.30
2022-08-23T10:36:55.331Z,32.50
2022-08-23T10:41:02.403Z,32.70
2022-08-23T10:45:11.009Z,32.80
2022-08-23T10:49:14.859Z,33.00
2022-08-23T10:53:18.659Z,33.10
2022-08-23T10:57:24.714Z,33.20
2022-08-23T11:01:30.528Z,33.40
2022-08-23T11:05:35.454Z,33.50
2022-08-23T11:09:46.805Z,33.60
2022-08-23T11:13:54.379Z,33.80
2022-08-23T11:18:02.341Z,33.90
2022-08-23T11:22:14.194Z,34.00
2022-08-23T11:26:37.842Z,34.10
2022-08-23T11:30:50.841Z,34.20
2022-08-23T11:35:04.212Z,34.40
2022-08-23T11:39:09.611Z,34.50
2022-08-23T11:43:13.897Z,34.60
2022-08-23T11:47:28.884Z,34.70
2022-08-23T11:51:36.163Z,34.80
2022-08-23T11:55:56.705Z,35.00
2022-08-23T12:00:04.469Z,35.00
2022-08-23T12:04:14.721Z,35.00
2022-08-23T12:08:44.360Z,35.10
2022-08-23T12:13:07.188Z,35.10
2022-08-23T12:17:42.947Z,35.10
2022-08-23T12:21:48.510Z,35.10
2022-08-23T12:26:01.655Z,35.20
2022-08-23T12:30:08.050Z,35.30
2022-08-23T12:34:18.312Z,35.20
2022-08-23T12:38:25.671Z,35.30
2022-08-23T12:42:29.751Z,35.30
2022-08-23T12:46:38.310Z,35.40
2022-08-23T12:50:43.724Z,35.40
2022-08-23T12:54:47.438Z,35.40
2022-08-23T12:58:52.310Z,35.40
2022-08-23T13:02:57.466Z,35.40
2022-08-23T13:07:03.172Z,35.30
2022-08-23T13:11:08.589Z,35.30
2022-08-23T13:15:11.907Z,35.30
2022-08-23T13:19:16.292Z,35.30
2022-08-23T13:23:29.195Z,35.30
2022-08-23T13:27:34.648Z,35.20
2022-08-23T13:31:51.686Z,35.20
2022-08-23T13:36:13.050Z,35.20
2022-08-23T13:40:22.547Z,35.10
2022-08-23T13:44:27.562Z,35.00
2022-08-23T13:48:32.532Z,35.10
2022-08-23T13:53:03.094Z,35.10
2022-08-23T13:57:02.861Z,35.00
2022-08-23T14:01:10.384Z,35.00
2022-08-23T14:05:13.217Z,35.00
2022-08-23T14:09:16.097Z,35.10
2022-08-23T14:13:21.553Z,35.10
2022-08-23T14:17:24.414Z,35.10
2022-08-23T14:21:27.530Z,35.10
2022-08-23T14:25:30.355Z,35.10
2022-08-23T14:29:34.462Z,35.00
2022-08-23T14:33:37.531Z,35.00
2022-08-23T14:42:03.366Z,35.00
2022-08-23T14:46:07.863Z,35.10
2022-08-23T14:50:12.022Z,35.30
2022-08-23T14:54:16.977Z,35.30
2022-08-23T14:58:19.925Z,35.40
2022-08-23T15:02:25.625Z,35.40
2022-08-23T15:06:29.017Z,35.30
2022-08-23T15:14:57.118Z,35.40
2022-08-23T15:19:01.643Z,35.50
2022-08-23T15:23:05.503Z,35.50
2022-08-23T15:27:08.419Z,35.50
2022-08-23T15:31:13.081Z,35.40
2022-08-23T15:35:17.679Z,35.20
2022-08-23T15:39:20.541Z,35.00
2022-08-23T15:43:33.883Z,34.90
2022-08-23T15:47:42.879Z,34.90
2022-08-23T15:51:47.642Z,34.60
2022-08-23T15:55:51.227Z,34.50
2022-08-23T15:59:54.280Z,34.20
2022-08-23T16:03:57.390Z,34.00
2022-08-23T16:08:01.595Z,33.90
2022-08-23T16:12:05.491Z,33.90
2022-08-23T16:16:09.455Z,33.70
2022-08-23T16:20:12.663Z,33.60
2022-08-23T16:24:16.796Z,33.30
2022-08-23T16:28:20.211Z,33.00
2022-08-23T16:32:23.123Z,32.80
2022-08-23T16:36:30.227Z,32.60
2022-08-23T16:40:34.724Z,32.40
2022-08-23T16:44:37.576Z,32.20
2022-08-23T16:48:40.421Z,32.00
2022-08-23T16:52:43.282Z,31.80
2022-08-23T16:56:47.544Z,31.80
2022-08-23T17:00:50.627Z,31.80
2022-08-23T17:04:53.495Z,31.80
2022-08-23T17:08:56.286Z,31.80
2022-08-23T17:13:01.375Z,31.60
2022-08-23T17:17:04.547Z,31.50
2022-08-23T17:21:07.940Z,31.30
2022-08-23T17:25:11.553Z,31.10
2022-08-23T17:29:15.811Z,31.00
2022-08-23T17:33:18.577Z,30.80
2022-08-23T17:37:22.894Z,30.70
2022-08-23T17:41:27.503Z,30.50
2022-08-23T17:45:33.587Z,30.40
2022-08-23T17:49:36.919Z,30.20
2022-08-23T17:53:40.996Z,30.10
2022-08-23T17:57:44.039Z,30.00
2022-08-23T18:01:48.309Z,29.80
2022-08-23T18:05:51.221Z,29.70
2022-08-23T18:09:54.391Z,29.50
2022-08-23T18:13:57.502Z,29.40
2022-08-23T18:18:02.441Z,29.20
2022-08-23T18:22:05.411Z,29.10
2022-08-23T18:26:08.953Z,29.00
2022-08-23T18:30:12.398Z,28.90
2022-08-23T18:34:17.593Z,28.70
2022-08-23T18:38:20.575Z,28.60
2022-08-23T18:42:24.162Z,28.50
2022-08-23T18:46:31.688Z,28.40
2022-08-23T18:50:37.624Z,28.30
2022-08-23T18:54:40.483Z,28.20
2022-08-23T18:58:43.278Z,28.00
2022-08-23T19:02:46.278Z,27.90
2022-08-23T19:06:54.397Z,27.80
2022-08-23T19:10:58.169Z,27.70
2022-08-23T19:15:01.091Z,27.60
2022-08-23T19:19:04.108Z,27.50
2022-08-23T19:23:08.289Z,27.50
2022-08-23T19:27:11.159Z,27.30
2022-08-23T19:31:14.299Z,27.30
2022-08-23T19:35:17.879Z,27.20
2022-08-23T19:39:22.116Z,27.10
2022-08-23T19:43:25.184Z,27.00
2022-08-23T19:47:28.650Z,26.90
2022-08-23T19:51:31.796Z,26.90
2022-08-23T19:55:42.510Z,26.80
2022-08-23T19:59:47.635Z,26.70
2022-08-23T20:03:50.478Z,26.70
2022-08-23T20:07:53.786Z,26.60
2022-08-23T20:11:58.599Z,26.50
2022-08-23T20:20:05.520Z,26.40
2022-08-23T20:24:09.836Z,26.30
2022-08-23T20:28:14.016Z,26.20
2022-08-23T20:32:17.092Z,26.10
2022-08-23T20:36:20.429Z,26.10
2022-08-23T20:40:25.895Z,26.00
2022-08-23T20:44:30.247Z,26.00
2022-08-23T20:48:33.970Z,25.90
2022-08-23T20:52:36.813Z,25.80
2022-08-23T20:56:39.673Z,25.80
2022-08-23T21:00:43.989Z,25.70
2022-08-23T21:04:46.843Z,25.60
2022-08-23T21:08:53.636Z,25.60
2022-08-23T21:12:56.668Z,25.60
2022-08-23T21:17:01.825Z,25.50
2022-08-23T21:21:04.962Z,25.50
2022-08-23T21:25:08.125Z,25.50
2022-08-23T21:29:11.306Z,25.40
2022-08-23T21:33:15.764Z,25.40
2022-08-23T21:37:19.232Z,25.40
2022-08-23T21:41:30.398Z,25.30
2022-08-23T21:45:33.306Z,25.30
2022-08-23T21:49:39.038Z,25.20
2022-08-23T21:53:41.868Z,25.10
2022-08-23T21:57:45.943Z,25.10
2022-08-23T22:01:48.981Z,25.10
2022-08-23T22:05:54.296Z,25.00
2022-08-23T22:09:57.131Z,25.00
2022-08-23T22:14:00.363Z,24.90
2022-08-23T22:18:03.870Z,24.80
2022-08-23T22:22:08.043Z,24.80
2022-08-23T22:26:11.708Z,24.70
2022-08-23T22:30:14.943Z,24.60
2022-08-23T22:34:17.810Z,24.60
2022-08-23T22:38:21.998Z,24.50
2022-08-23T22:42:25.580Z,24.40
2022-08-23T22:46:29.397Z,24.30
2022-08-23T22:50:32.255Z,24.30
2022-08-23T22:54:36.460Z,24.10
2022-08-23T22:58:40.385Z,24.10
2022-08-23T23:02:43.528Z,24.00
2022-08-23T23:06:46.430Z,23.90
2022-08-23T23:10:50.608Z,23.80
2022-08-23T23:14:53.438Z,23.70
2022-08-23T23:19:13.955Z,23.60
2022-08-23T23:23:18.043Z,23.50
2022-08-23T23:27:22.241Z,23.40
2022-08-23T23:31:25.066Z,23.30
2022-08-23T23:35:28.309Z,23.20
2022-08-23T23:39:31.122Z,23.10
2022-08-23T23:43:35.573Z,23.00
2022-08-23T23:47:38.624Z,22.90
2022-08-23T23:51:41.512Z,22.80
2022-08-23T23:55:44.445Z,22.70
2022-08-23T23:59:48.619Z,22.60
